Time,TemperatureF,DewpointF,PressureIn,WindDirection,WindDirectionDegrees,WindSpeedMPH,WindSpeedGustMPH,Humidity,HourlyPrecipIn,Conditions,Clouds,dailyrainin,SoftwareType,DateUTC
2013-05-14 00:04:00,42.3,39.0,29.44,SW,225,1.6,3.1,88,0.00,,,0.00,pywws,2013-05-13 23:04:00,
2013-05-14 00:09:00,42.3,39.0,29.44,NW,315,2.2,6.9,88,0.00,,,0.00,pywws,2013-05-13 23:09:00,
2013-05-14 00:14:00,42.6,39.3,29.44,NW,315,1.6,3.1,88,0.00,,,0.00,pywws,2013-05-13 23:14:00,
2013-05-14 00:19:00,42.6,39.6,29.44,North,0,1.6,4.5,89,0.00,,,0.00,pywws,2013-05-13 23:19:00,
2013-05-14 00:24:00,42.4,39.4,29.44,North,0,1.6,3.8,89,0.00,,,0.00,pywws,2013-05-13 23:24:00,
2013-05-14 00:29:00,42.6,39.9,29.44,NE,45,2.2,5.4,90,0.00,,,0.00,pywws,2013-05-13 23:29:00,
2013-05-14 00:34:00,42.6,39.9,29.43,North,0,2.2,3.8,90,0.00,,,0.00,pywws,2013-05-13 23:34:00,
2013-05-14 00:39:00,42.6,39.9,29.43,NW,315,1.6,3.1,90,0.00,,,0.00,pywws,2013-05-13 23:39:00,
2013-05-14 00:44:00,42.6,39.9,29.42,North,0,2.2,6.0,90,0.00,,,0.00,pywws,2013-05-13 23:44:00,
2013-05-14 00:49:00,42.8,39.8,29.42,NW,315,3.1,5.4,89,0.00,,,0.00,pywws,2013-05-13 23:49:00,
2013-05-14 00:54:00,43.0,39.7,29.42,NNW,338,1.6,3.1,88,0.00,,,0.00,pywws,2013-05-13 23:54:00,
2013-05-14 01:04:00,43.0,39.7,29.42,SE,135,3.1,9.2,88,0.00,,,0.00,pywws,2013-05-14 00:04:00,
2013-05-14 01:09:00,42.8,39.8,29.41,NW,315,3.1,6.9,89,0.00,,,0.00,pywws,2013-05-14 00:09:00,
2013-05-14 01:14:00,42.8,39.8,29.41,NW,315,1.6,3.8,89,0.00,,,0.00,pywws,2013-05-14 00:14:00,
2013-05-14 01:19:00,42.8,39.8,29.41,NNW,338,2.2,4.5,89,0.00,,,0.00,pywws,2013-05-14 00:19:00,
2013-05-14 01:24:00,43.0,39.7,29.41,NE,45,2.2,6.0,88,0.00,,,0.00,pywws,2013-05-14 00:24:00,
2013-05-14 01:29:00,43.0,40.0,29.41,North,0,2.2,5.4,89,0.00,,,0.00,pywws,2013-05-14 00:29:00,
2013-05-14 01:34:00,42.8,39.8,29.41,North,0,1.6,3.1,89,0.00,,,0.00,pywws,2013-05-14 00:34:00,
2013-05-14 01:39:00,42.8,39.8,29.41,NW,315,2.2,4.5,89,0.00,,,0.00,pywws,2013-05-14 00:39:00,
2013-05-14 01:44:00,42.6,39.6,29.41,North,0,3.1,6.0,89,0.00,,,0.00,pywws,2013-05-14 00:44:00,
2013-05-14 01:49:00,42.4,39.4,29.40,West,270,3.8,6.9,89,0.00,,,0.00,pywws,2013-05-14 00:49:00,
2013-05-14 01:54:00,42.6,39.6,29.39,North,0,2.2,6.0,89,0.00,,,0.00,pywws,2013-05-14 00:54:00,
2013-05-14 02:04:00,42.4,39.4,29.40,North,0,2.2,4.5,89,0.00,,,0.00,pywws,2013-05-14 01:04:00,
2013-05-14 02:09:00,43.0,39.4,29.39,North,0,3.8,12.1,87,0.00,,,0.00,pywws,2013-05-14 01:09:00,
2013-05-14 02:14:00,43.0,39.4,29.39,SW,225,3.8,12.1,87,0.00,,,0.00,pywws,2013-05-14 01:14:00,
2013-05-14 02:19:00,43.0,39.4,29.39,North,0,3.1,4.5,87,0.00,,,0.00,pywws,2013-05-14 01:19:00,
2013-05-14 02:24:00,43.2,39.3,29.39,NW,315,2.2,5.4,86,0.00,,,0.00,pywws,2013-05-14 01:24:00,
2013-05-14 02:29:00,43.2,39.6,29.39,West,270,1.6,3.1,87,0.00,,,0.00,pywws,2013-05-14 01:29:00,
2013-05-14 02:34:00,43.0,39.4,29.39,NW,315,3.8,11.4,87,0.00,,,0.00,pywws,2013-05-14 01:34:00,
2013-05-14 02:39:00,43.2,39.9,29.39,North,0,2.2,6.9,88,0.00,,,0.00,pywws,2013-05-14 01:39:00,
2013-05-14 02:44:00,43.2,39.9,29.39,South,180,4.5,10.7,88,0.00,,,0.00,pywws,2013-05-14 01:44:00,
2013-05-14 02:49:00,43.2,39.9,29.40,North,0,1.6,3.8,88,0.00,,,0.00,pywws,2013-05-14 01:49:00,
2013-05-14 02:54:00,43.2,39.9,29.40,NW,315,1.6,3.8,88,0.00,,,0.00,pywws,2013-05-14 01:54:00,
2013-05-14 03:04:00,43.3,40.0,29.40,North,0,2.2,3.8,88,0.00,,,0.00,pywws,2013-05-14 02:04:00,
2013-05-14 03:09:00,43.2,39.6,29.39,East,90,2.2,3.8,87,0.00,,,0.00,pywws,2013-05-14 02:09:00,
2013-05-14 03:14:00,43.0,39.4,29.39,East,90,2.2,6.0,87,0.00,,,0.00,pywws,2013-05-14 02:14:00,
2013-05-14 03:19:00,43.0,39.4,29.39,NNW,338,1.6,3.8,87,0.00,,,0.00,pywws,2013-05-14 02:19:00,
2013-05-14 03:24:00,42.8,39.2,29.39,North,0,1.6,3.1,87,0.00,,,0.00,pywws,2013-05-14 02:24:00,
2013-05-14 03:29:00,42.8,39.5,29.39,North,0,1.6,3.8,88,0.00,,,0.00,pywws,2013-05-14 02:29:00,
2013-05-14 03:34:00,42.8,39.8,29.39,NW,315,3.1,5.4,89,0.00,,,0.00,pywws,2013-05-14 02:34:00,
2013-05-14 03:39:00,42.8,39.8,29.39,NW,315,1.6,3.1,89,0.00,,,0.00,pywws,2013-05-14 02:39:00,
2013-05-14 03:44:00,42.8,39.8,29.38,NE,45,1.6,3.1,89,0.00,,,0.00,pywws,2013-05-14 02:44:00,
2013-05-14 03:49:00,42.6,39.9,29.38,ENE,68,1.6,3.8,90,0.00,,,0.00,pywws,2013-05-14 02:49:00,
2013-05-14 03:54:00,42.8,40.1,29.38,NE,45,1.6,3.1,90,0.00,,,0.00,pywws,2013-05-14 02:54:00,
2013-05-14 04:04:00,42.8,40.1,29.38,NNE,22,2.2,5.4,90,0.00,,,0.00,pywws,2013-05-14 03:04:00,
2013-05-14 04:09:00,42.6,39.9,29.38,NW,315,2.2,4.5,90,0.00,,,0.00,pywws,2013-05-14 03:09:00,
2013-05-14 04:14:00,42.6,40.2,29.39,NW,315,1.6,3.1,91,0.00,,,0.00,pywws,2013-05-14 03:14:00,
2013-05-14 04:19:00,42.6,40.5,29.38,SE,135,2.2,4.5,92,0.00,,,0.00,pywws,2013-05-14 03:19:00,
2013-05-14 04:24:00,42.6,40.5,29.38,NW,315,2.2,3.8,92,0.00,,,0.00,pywws,2013-05-14 03:24:00,
2013-05-14 04:29:00,42.6,40.7,29.39,ESE,112,3.1,5.4,93,0.00,,,0.00,pywws,2013-05-14 03:29:00,
2013-05-14 04:34:00,42.6,40.7,29.39,NW,315,1.6,4.5,93,0.00,,,0.00,pywws,2013-05-14 03:34:00,
2013-05-14 04:39:00,42.6,40.7,29.39,South,180,1.6,3.8,93,0.00,,,0.00,pywws,2013-05-14 03:39:00,
2013-05-14 04:44:00,42.4,40.8,29.39,East,90,1.6,3.8,94,0.00,,,0.00,pywws,2013-05-14 03:44:00,
2013-05-14 04:49:00,42.4,40.8,29.39,WNW,292,1.6,3.1,94,0.00,,,0.00,pywws,2013-05-14 03:49:00,
2013-05-14 04:54:00,42.4,41.1,29.39,SE,135,2.2,4.5,95,0.00,,,0.00,pywws,2013-05-14 03:54:00,
2013-05-14 05:04:00,42.4,41.1,29.39,North,0,0.7,3.1,95,0.00,,,0.00,pywws,2013-05-14 04:04:00,
2013-05-14 05:09:00,42.1,40.8,29.38,NW,315,0.7,3.1,95,0.00,,,0.00,pywws,2013-05-14 04:09:00,
2013-05-14 05:14:00,42.1,40.8,29.38,East,90,1.6,4.5,95,0.00,,,0.00,pywws,2013-05-14 04:14:00,
2013-05-14 05:19:00,41.9,40.8,29.38,NNW,338,1.6,5.4,96,0.00,,,0.00,pywws,2013-05-14 04:19:00,
2013-05-14 05:24:00,41.9,40.8,29.38,WNW,292,0.7,3.1,96,0.00,,,0.00,pywws,2013-05-14 04:24:00,
2013-05-14 05:29:00,41.9,40.6,29.38,NE,45,1.6,3.1,95,0.00,,,0.00,pywws,2013-05-14 04:29:00,
2013-05-14 05:34:00,41.9,40.6,29.38,East,90,1.6,3.8,95,0.00,,,0.00,pywws,2013-05-14 04:34:00,
2013-05-14 05:39:00,41.7,40.4,29.38,NW,315,0.7,1.6,95,0.00,,,0.00,pywws,2013-05-14 04:39:00,
2013-05-14 05:44:00,41.9,40.6,29.38,North,0,1.6,3.8,95,0.00,,,0.00,pywws,2013-05-14 04:44:00,
2013-05-14 05:49:00,42.1,40.8,29.38,North,-999,0.0,1.6,95,0.00,,,0.00,pywws,2013-05-14 04:49:00,
2013-05-14 05:54:00,42.4,41.1,29.38,North,0,0.7,3.1,95,0.00,,,0.00,pywws,2013-05-14 04:54:00,
2013-05-14 06:04:00,42.4,40.8,29.38,North,0,2.2,3.8,94,0.00,,,0.00,pywws,2013-05-14 05:04:00,
2013-05-14 06:09:00,42.6,41.0,29.38,South,180,0.7,3.1,94,0.00,,,0.00,pywws,2013-05-14 05:09:00,
2013-05-14 06:14:00,42.4,40.6,29.38,NW,315,2.2,5.4,93,0.00,,,0.00,pywws,2013-05-14 05:14:00,
2013-05-14 06:19:00,42.6,40.7,29.38,NW,315,1.6,3.1,93,0.00,,,0.00,pywws,2013-05-14 05:19:00,
2013-05-14 06:24:00,42.8,40.6,29.38,North,0,1.6,3.8,92,0.00,,,0.00,pywws,2013-05-14 05:24:00,
2013-05-14 06:29:00,43.2,40.7,29.39,North,0,2.2,3.8,91,0.00,,,0.00,pywws,2013-05-14 05:29:00,
2013-05-14 06:34:00,42.8,40.1,29.39,NE,45,2.2,3.8,90,0.00,,,0.00,pywws,2013-05-14 05:34:00,
2013-05-14 06:39:00,43.3,40.9,29.39,NNW,338,0.7,1.6,91,0.00,,,0.00,pywws,2013-05-14 05:39:00,
2013-05-14 06:44:00,43.7,41.0,29.38,SE,135,0.7,2.2,90,0.00,,,0.00,pywws,2013-05-14 05:44:00,
2013-05-14 06:49:00,43.3,40.9,29.38,North,0,1.6,3.1,91,0.00,,,0.00,pywws,2013-05-14 05:49:00,
2013-05-14 06:54:00,43.3,40.9,29.39,WNW,292,2.2,6.9,91,0.00,,,0.00,pywws,2013-05-14 05:54:00,
2013-05-14 07:04:00,43.3,41.2,29.39,North,-999,0.0,3.1,92,0.00,,,0.00,pywws,2013-05-14 06:04:00,
2013-05-14 07:09:00,43.5,41.1,29.38,SW,225,1.6,5.4,91,0.00,,,0.00,pywws,2013-05-14 06:09:00,
2013-05-14 07:14:00,43.7,41.2,29.38,NNE,22,0.7,3.1,91,0.00,,,0.00,pywws,2013-05-14 06:14:00,
2013-05-14 07:19:00,44.2,41.8,29.39,NW,315,0.7,3.1,91,0.00,,,0.00,pywws,2013-05-14 06:19:00,
2013-05-14 07:24:00,44.6,41.6,29.39,SE,135,1.6,5.4,89,0.00,,,0.00,pywws,2013-05-14 06:24:00,
2013-05-14 07:29:00,44.6,41.6,29.39,SE,135,1.6,3.1,89,0.00,,,0.00,pywws,2013-05-14 06:29:00,
2013-05-14 07:34:00,44.6,41.3,29.39,North,0,1.6,3.1,88,0.00,,,0.00,pywws,2013-05-14 06:34:00,
2013-05-14 07:39:00,44.8,41.4,29.39,NW,315,1.6,3.8,88,0.00,,,0.00,pywws,2013-05-14 06:39:00,
2013-05-14 07:44:00,44.8,41.2,29.39,North,0,0.7,3.8,87,0.00,,,0.00,pywws,2013-05-14 06:44:00,
2013-05-14 07:49:00,44.6,41.0,29.39,North,0,1.6,3.1,87,0.00,,,0.00,pywws,2013-05-14 06:49:00,
2013-05-14 07:54:00,44.8,40.9,29.39,WSW,248,1.6,4.5,86,0.00,,,0.00,pywws,2013-05-14 06:54:00,
2013-05-14 08:04:00,45.1,40.9,29.39,NW,315,2.2,3.8,85,0.00,,,0.00,pywws,2013-05-14 07:04:00,
2013-05-14 08:09:00,45.5,41.0,29.39,NW,315,3.1,6.9,84,0.00,,,0.00,pywws,2013-05-14 07:09:00,
2013-05-14 08:14:00,46.0,41.2,29.39,North,0,2.2,4.5,83,0.00,,,0.00,pywws,2013-05-14 07:14:00,
2013-05-14 08:19:00,46.0,40.9,29.39,North,0,1.6,3.8,82,0.00,,,0.00,pywws,2013-05-14 07:19:00,
2013-05-14 08:24:00,46.4,41.2,29.38,NW,315,3.8,9.8,82,0.00,,,0.00,pywws,2013-05-14 07:24:00,
2013-05-14 08:29:00,48.9,42.7,29.38,NW,315,2.2,7.6,79,0.00,,,0.00,pywws,2013-05-14 07:29:00,
2013-05-14 08:34:00,49.8,42.9,29.39,South,180,2.2,3.8,77,0.00,,,0.00,pywws,2013-05-14 07:34:00,
2013-05-14 08:39:00,50.2,42.9,29.39,North,0,2.2,4.5,76,0.00,,,0.00,pywws,2013-05-14 07:39:00,
2013-05-14 08:44:00,50.5,43.6,29.39,North,0,1.6,3.8,77,0.00,,,0.00,pywws,2013-05-14 07:44:00,
2013-05-14 08:49:00,50.2,42.6,29.39,North,0,1.6,3.1,75,0.00,,,0.00,pywws,2013-05-14 07:49:00,
2013-05-14 08:54:00,49.1,42.5,29.39,NW,315,1.6,3.8,78,0.00,,,0.00,pywws,2013-05-14 07:54:00,
2013-05-14 09:04:00,49.3,43.0,29.39,West,270,1.6,3.1,79,0.00,,,0.00,pywws,2013-05-14 08:04:00,
2013-05-14 09:09:00,50.0,43.1,29.39,North,0,3.1,8.3,77,0.00,,,0.00,pywws,2013-05-14 08:09:00,
2013-05-14 09:14:00,50.5,43.9,29.39,North,0,0.7,3.8,78,0.00,,,0.00,pywws,2013-05-14 08:14:00,
2013-05-14 09:19:00,51.1,43.8,29.39,NW,315,1.6,3.1,76,0.00,,,0.00,pywws,2013-05-14 08:19:00,
2013-05-14 09:24:00,52.5,45.2,29.39,NE,45,1.6,3.8,76,0.00,,,0.00,pywws,2013-05-14 08:24:00,
2013-05-14 09:29:00,52.7,43.9,29.39,East,90,1.6,4.5,72,0.00,,,0.00,pywws,2013-05-14 08:29:00,
2013-05-14 09:34:00,52.3,44.3,29.38,NW,315,3.1,4.5,74,0.00,,,0.00,pywws,2013-05-14 08:34:00,
2013-05-14 09:39:00,52.2,43.4,29.38,NW,315,1.6,3.1,72,0.00,,,0.00,pywws,2013-05-14 08:39:00,
2013-05-14 09:44:00,52.3,44.3,29.38,SW,225,2.2,4.5,74,0.00,,,0.00,pywws,2013-05-14 08:44:00,
2013-05-14 09:49:00,52.9,44.1,29.38,NE,45,1.6,4.5,72,0.00,,,0.00,pywws,2013-05-14 08:49:00,
2013-05-14 09:54:00,53.8,45.0,29.37,NE,45,1.6,3.8,72,0.00,,,0.00,pywws,2013-05-14 08:54:00,
2013-05-14 10:04:00,53.4,44.3,29.37,East,90,1.6,3.8,71,0.00,,,0.00,pywws,2013-05-14 09:04:00,
2013-05-14 10:09:00,50.9,42.6,29.38,NE,45,1.6,3.8,73,0.00,,,0.00,pywws,2013-05-14 09:09:00,
2013-05-14 10:14:00,51.1,43.4,29.38,NW,315,1.6,3.8,75,0.00,,,0.00,pywws,2013-05-14 09:14:00,
2013-05-14 10:19:00,51.4,43.1,29.38,NW,315,1.6,3.8,73,0.00,,,0.00,pywws,2013-05-14 09:19:00,
2013-05-14 10:24:00,51.3,43.6,29.38,East,90,2.2,6.9,75,0.00,,,0.00,pywws,2013-05-14 09:24:00,
2013-05-14 10:29:00,51.1,43.1,29.39,North,0,2.2,3.8,74,0.00,,,0.00,pywws,2013-05-14 09:29:00,
2013-05-14 10:34:00,51.1,42.7,29.38,North,0,3.1,6.9,73,0.00,,,0.00,pywws,2013-05-14 09:34:00,
2013-05-14 10:39:00,51.4,43.1,29.38,WNW,292,1.6,3.1,73,0.00,,,0.00,pywws,2013-05-14 09:39:00,
2013-05-14 10:44:00,51.1,42.4,29.38,NE,45,3.8,6.9,72,0.00,,,0.00,pywws,2013-05-14 09:44:00,
2013-05-14 10:49:00,51.3,43.3,29.38,North,0,2.2,3.8,74,0.00,,,0.00,pywws,2013-05-14 09:49:00,
2013-05-14 10:54:00,53.1,44.3,29.39,SE,135,2.2,4.5,72,0.00,,,0.00,pywws,2013-05-14 09:54:00,
2013-05-14 11:04:00,55.0,44.3,29.39,WNW,292,3.8,6.9,67,0.00,,,0.00,pywws,2013-05-14 10:04:00,
2013-05-14 11:09:00,53.1,42.8,29.38,SSE,158,2.2,7.6,68,0.00,,,0.00,pywws,2013-05-14 10:09:00,
2013-05-14 11:14:00,54.3,44.4,29.38,North,0,2.2,5.4,69,0.00,,,0.00,pywws,2013-05-14 10:14:00,
2013-05-14 11:19:00,54.1,43.8,29.38,North,0,1.6,3.8,68,0.00,,,0.00,pywws,2013-05-14 10:19:00,
2013-05-14 11:24:00,53.8,43.5,29.39,East,90,0.7,3.1,68,0.00,,,0.00,pywws,2013-05-14 10:24:00,
2013-05-14 11:29:00,53.1,43.5,29.38,SSE,158,2.2,5.4,70,0.00,,,0.00,pywws,2013-05-14 10:29:00,
2013-05-14 11:34:00,53.2,42.6,29.38,NNW,338,3.1,6.0,67,0.00,,,0.00,pywws,2013-05-14 10:34:00,
2013-05-14 11:39:00,54.3,44.4,29.39,North,0,1.6,3.8,69,0.00,,,0.00,pywws,2013-05-14 10:39:00,
2013-05-14 11:44:00,55.2,43.7,29.39,NNE,22,1.6,3.1,65,0.00,,,0.00,pywws,2013-05-14 10:44:00,
2013-05-14 11:49:00,55.8,43.4,29.39,NW,315,1.6,3.8,63,0.00,,,0.00,pywws,2013-05-14 10:49:00,
2013-05-14 11:54:00,55.8,42.5,29.38,SE,135,3.1,6.9,61,0.00,,,0.00,pywws,2013-05-14 10:54:00,
2013-05-14 12:04:00,56.3,42.2,29.39,NW,315,3.1,7.6,59,0.00,,,0.00,pywws,2013-05-14 11:04:00,
2013-05-14 12:09:00,56.3,41.3,29.37,WNW,292,3.1,6.0,57,0.00,,,0.00,pywws,2013-05-14 11:09:00,
2013-05-14 12:14:00,55.4,41.7,29.38,North,0,1.6,3.1,60,0.00,,,0.00,pywws,2013-05-14 11:14:00,
2013-05-14 12:19:00,56.8,42.2,29.38,NW,315,1.6,3.8,58,0.00,,,0.00,pywws,2013-05-14 11:19:00,
2013-05-14 12:24:00,59.0,41.9,29.37,WNW,292,2.2,6.9,53,0.00,,,0.00,pywws,2013-05-14 11:24:00,
2013-05-14 12:29:00,58.8,41.7,29.38,North,0,2.2,5.4,53,0.00,,,0.00,pywws,2013-05-14 11:29:00,
2013-05-14 12:34:00,58.5,42.8,29.38,NE,45,1.6,4.5,56,0.00,,,0.00,pywws,2013-05-14 11:34:00,
2013-05-14 12:39:00,58.3,43.6,29.38,North,0,1.6,3.1,58,0.00,,,0.00,pywws,2013-05-14 11:39:00,
2013-05-14 12:44:00,59.0,42.4,29.38,North,0,2.2,4.5,54,0.00,,,0.00,pywws,2013-05-14 11:44:00,
2013-05-14 12:49:00,59.0,43.3,29.37,ENE,68,1.6,4.5,56,0.00,,,0.00,pywws,2013-05-14 11:49:00,
2013-05-14 12:54:00,59.9,44.2,29.37,North,0,0.7,2.2,56,0.00,,,0.00,pywws,2013-05-14 11:54:00,
2013-05-14 13:04:00,60.1,42.9,29.37,North,0,2.2,6.9,53,0.00,,,0.00,pywws,2013-05-14 12:04:00,
2013-05-14 13:09:00,60.8,41.0,29.37,NW,315,4.5,7.6,48,0.00,,,0.00,pywws,2013-05-14 12:09:00,
2013-05-14 13:14:00,60.4,42.2,29.37,NW,315,2.2,6.0,51,0.00,,,0.00,pywws,2013-05-14 12:14:00,
2013-05-14 13:19:00,61.0,40.6,29.37,South,180,3.1,5.4,47,0.00,,,0.00,pywws,2013-05-14 12:19:00,
2013-05-14 13:24:00,61.0,41.7,29.37,SE,135,1.6,4.5,49,0.00,,,0.00,pywws,2013-05-14 12:24:00,
2013-05-14 13:29:00,61.0,42.2,29.37,North,0,1.6,3.1,50,0.00,,,0.00,pywws,2013-05-14 12:29:00,
2013-05-14 13:34:00,60.8,43.1,29.37,North,0,1.6,3.1,52,0.00,,,0.00,pywws,2013-05-14 12:34:00,
2013-05-14 13:39:00,60.8,43.6,29.37,East,90,1.6,6.0,53,0.00,,,0.00,pywws,2013-05-14 12:39:00,
2013-05-14 13:44:00,61.5,42.7,29.37,East,90,3.1,6.0,50,0.00,,,0.00,pywws,2013-05-14 12:44:00,
2013-05-14 13:49:00,62.6,44.2,29.36,North,0,1.6,4.5,51,0.00,,,0.00,pywws,2013-05-14 12:49:00,
2013-05-14 13:54:00,61.9,43.0,29.36,North,0,1.6,3.8,50,0.00,,,0.00,pywws,2013-05-14 12:54:00,
2013-05-14 14:04:00,60.8,41.0,29.37,NNE,22,2.2,4.5,48,0.00,,,0.00,pywws,2013-05-14 13:04:00,
2013-05-14 14:09:00,59.4,42.2,29.37,East,90,2.2,6.0,53,0.00,,,0.00,pywws,2013-05-14 13:09:00,
2013-05-14 14:14:00,56.8,40.4,29.37,ENE,68,2.2,6.0,54,0.00,,,0.00,pywws,2013-05-14 13:14:00,
2013-05-14 14:19:00,56.8,40.8,29.38,West,270,0.7,3.1,55,0.00,,,0.00,pywws,2013-05-14 13:19:00,
2013-05-14 14:24:00,58.6,42.0,29.37,North,0,0.7,3.1,54,0.00,,,0.00,pywws,2013-05-14 13:24:00,
2013-05-14 14:29:00,60.4,43.7,29.38,East,90,1.6,3.8,54,0.00,,,0.00,pywws,2013-05-14 13:29:00,
2013-05-14 14:34:00,59.2,42.1,29.39,NNE,22,3.1,4.5,53,0.00,,,0.00,pywws,2013-05-14 13:34:00,
2013-05-14 14:39:00,56.7,42.5,29.39,NW,315,0.7,2.2,59,0.00,,,0.00,pywws,2013-05-14 13:39:00,
2013-05-14 14:44:00,58.1,44.3,29.39,WNW,292,1.6,4.5,60,0.00,,,0.00,pywws,2013-05-14 13:44:00,
2013-05-14 14:49:00,58.1,45.1,29.39,NE,45,1.6,4.5,62,0.00,,,0.00,pywws,2013-05-14 13:49:00,
2013-05-14 14:54:00,59.7,44.5,29.39,West,270,1.6,4.5,57,0.00,,,0.00,pywws,2013-05-14 13:54:00,
2013-05-14 15:04:00,58.1,42.9,29.39,North,0,1.6,3.1,57,0.00,,,0.00,pywws,2013-05-14 14:04:00,
2013-05-14 15:09:00,59.0,42.4,29.38,NW,315,3.1,7.6,54,0.00,,,0.00,pywws,2013-05-14 14:09:00,
2013-05-14 15:14:00,58.6,43.0,29.39,East,90,1.6,3.8,56,0.00,,,0.00,pywws,2013-05-14 14:14:00,
2013-05-14 15:19:00,57.6,44.2,29.39,SW,225,2.2,5.4,61,0.00,,,0.00,pywws,2013-05-14 14:19:00,
2013-05-14 15:24:00,56.1,43.3,29.39,North,0,0.7,4.5,62,0.00,,,0.00,pywws,2013-05-14 14:24:00,
2013-05-14 15:29:00,54.9,42.9,29.40,NNE,22,2.2,3.8,64,0.00,,,0.00,pywws,2013-05-14 14:29:00,
2013-05-14 15:34:00,52.9,42.6,29.40,NW,315,3.8,9.2,68,0.00,,,0.00,pywws,2013-05-14 14:34:00,
2013-05-14 15:39:00,51.1,42.7,29.40,NE,45,3.1,6.0,73,0.00,,,0.00,pywws,2013-05-14 14:39:00,
2013-05-14 15:44:00,49.8,42.2,29.40,North,0,2.2,6.9,75,0.00,,,0.00,pywws,2013-05-14 14:44:00,
2013-05-14 15:49:00,48.2,42.0,29.40,NNW,338,2.2,6.0,79,0.00,,,0.00,pywws,2013-05-14 14:49:00,
2013-05-14 15:54:00,47.7,42.4,29.40,NW,315,3.1,6.0,82,0.00,,,0.00,pywws,2013-05-14 14:54:00,
2013-05-14 16:04:00,47.8,42.9,29.40,NNE,22,2.2,6.9,83,0.00,,,0.00,pywws,2013-05-14 15:04:00,
2013-05-14 16:09:00,49.6,44.7,29.39,NW,315,3.8,7.6,83,0.00,,,0.00,pywws,2013-05-14 15:09:00,
2013-05-14 16:14:00,51.4,44.5,29.39,East,90,4.5,8.3,77,0.00,,,0.00,pywws,2013-05-14 15:14:00,
2013-05-14 16:19:00,52.9,45.9,29.39,NE,45,2.2,5.4,77,0.00,,,0.00,pywws,2013-05-14 15:19:00,
2013-05-14 16:24:00,53.4,45.3,29.39,NW,315,5.4,9.2,74,0.00,,,0.00,pywws,2013-05-14 15:24:00,
2013-05-14 16:29:00,53.8,45.3,29.39,NW,315,3.8,9.8,73,0.00,,,0.00,pywws,2013-05-14 15:29:00,
2013-05-14 16:34:00,53.4,44.6,29.39,North,-999,5.4,8.3,72,0.00,,,0.00,pywws,2013-05-14 15:34:00,
2013-05-14 16:39:00,53.1,44.6,29.39,North,0,3.8,7.6,73,0.00,,,0.00,pywws,2013-05-14 15:39:00,
2013-05-14 16:44:00,52.9,44.5,29.39,NW,315,3.8,6.9,73,0.00,,,0.00,pywws,2013-05-14 15:44:00,
2013-05-14 16:49:00,53.6,45.2,29.39,North,0,2.2,4.5,73,0.00,,,0.00,pywws,2013-05-14 15:49:00,
2013-05-14 16:54:00,53.4,44.3,29.39,North,0,1.6,4.5,71,0.00,,,0.00,pywws,2013-05-14 15:54:00,
2013-05-14 17:04:00,52.9,44.8,29.39,North,0,1.6,4.5,74,0.00,,,0.00,pywws,2013-05-14 16:04:00,
2013-05-14 17:09:00,51.4,44.8,29.39,SE,135,1.6,3.1,78,0.00,,,0.00,pywws,2013-05-14 16:09:00,
2013-05-14 17:14:00,50.0,43.4,29.39,NE,45,1.6,3.8,78,0.00,,,0.00,pywws,2013-05-14 16:14:00,
2013-05-14 17:19:00,49.3,43.7,29.39,North,-999,0.0,1.6,81,0.00,,,0.00,pywws,2013-05-14 16:19:00,
2013-05-14 17:24:00,49.3,44.3,29.39,North,-999,0.0,0.7,83,0.00,,,0.00,pywws,2013-05-14 16:24:00,
2013-05-14 17:29:00,49.1,44.8,29.39,North,-999,0.0,0.7,85,0.00,,,0.00,pywws,2013-05-14 16:29:00,
2013-05-14 17:34:00,49.1,45.1,29.39,North,-999,0.0,0.7,86,0.00,,,0.00,pywws,2013-05-14 16:34:00,
2013-05-14 17:39:00,49.1,45.4,29.39,North,0,0.7,2.2,87,0.00,,,0.00,pywws,2013-05-14 16:39:00,
2013-05-14 17:44:00,47.8,43.9,29.39,North,-999,0.0,1.6,86,0.00,,,0.00,pywws,2013-05-14 16:44:00,
2013-05-14 17:49:00,47.7,44.6,29.40,North,-999,0.0,0.7,89,0.00,,,0.00,pywws,2013-05-14 16:49:00,
2013-05-14 17:54:00,48.4,46.2,29.40,North,-999,0.0,1.6,92,0.00,,,0.00,pywws,2013-05-14 16:54:00,
2013-05-14 18:04:00,49.6,48.3,29.40,NE,45,0.7,1.6,95,0.00,,,0.00,pywws,2013-05-14 17:04:00,
2013-05-14 18:09:00,52.3,50.1,29.39,North,-999,0.0,1.6,92,0.00,,,0.00,pywws,2013-05-14 17:09:00,
2013-05-14 18:14:00,53.2,50.1,29.39,North,-999,0.0,0.7,89,0.00,,,0.00,pywws,2013-05-14 17:14:00,
2013-05-14 18:19:00,53.2,49.2,29.40,NE,45,0.7,1.6,86,0.00,,,0.00,pywws,2013-05-14 17:19:00,
2013-05-14 18:24:00,53.2,48.8,29.40,North,-999,0.0,1.6,85,0.00,,,0.00,pywws,2013-05-14 17:24:00,
2013-05-14 18:29:00,53.4,48.1,29.40,North,-999,0.0,1.6,82,0.00,,,0.00,pywws,2013-05-14 17:29:00,
2013-05-14 18:34:00,53.2,47.2,29.39,North,-999,0.0,1.6,80,0.00,,,0.00,pywws,2013-05-14 17:34:00,
2013-05-14 18:39:00,53.2,47.2,29.40,North,-999,0.0,0.7,80,0.00,,,0.00,pywws,2013-05-14 17:39:00,
2013-05-14 18:44:00,52.7,46.0,29.39,North,-999,0.0,1.6,78,0.00,,,0.00,pywws,2013-05-14 17:44:00,
2013-05-14 18:49:00,51.4,45.1,29.39,North,-999,0.0,1.6,79,0.00,,,0.00,pywws,2013-05-14 17:49:00,
2013-05-14 18:54:00,50.5,44.3,29.39,North,-999,0.0,3.1,79,0.00,,,0.00,pywws,2013-05-14 17:54:00,
2013-05-14 19:04:00,50.2,44.6,29.40,North,-999,0.0,1.6,81,0.00,,,0.00,pywws,2013-05-14 18:04:00,
2013-05-14 19:09:00,49.3,44.0,29.40,North,-999,0.0,1.6,82,0.00,,,0.00,pywws,2013-05-14 18:09:00,
2013-05-14 19:14:00,49.1,43.8,29.40,NE,45,0.7,2.2,82,0.00,,,0.00,pywws,2013-05-14 18:14:00,
2013-05-14 19:19:00,48.7,43.5,29.40,North,-999,0.0,1.6,82,0.00,,,0.00,pywws,2013-05-14 18:19:00,
2013-05-14 19:24:00,48.6,43.3,29.40,North,-999,0.0,2.2,82,0.00,,,0.00,pywws,2013-05-14 18:24:00,
2013-05-14 19:29:00,48.6,42.7,29.41,East,90,0.7,3.1,80,0.00,,,0.00,pywws,2013-05-14 18:29:00,
2013-05-14 19:34:00,49.5,43.2,29.41,South,180,0.7,1.6,79,0.00,,,0.00,pywws,2013-05-14 18:34:00,
2013-05-14 19:39:00,50.2,43.6,29.41,NW,315,0.7,2.2,78,0.00,,,0.00,pywws,2013-05-14 18:39:00,
2013-05-14 19:44:00,50.2,43.3,29.41,North,-999,0.0,1.6,77,0.00,,,0.00,pywws,2013-05-14 18:44:00,
2013-05-14 19:49:00,50.7,43.8,29.40,North,-999,0.0,1.6,77,0.00,,,0.00,pywws,2013-05-14 18:49:00,
2013-05-14 19:54:00,50.5,42.9,29.41,North,-999,0.0,0.7,75,0.00,,,0.00,pywws,2013-05-14 18:54:00,
2013-05-14 20:04:00,50.0,42.7,29.41,North,-999,0.0,1.6,76,0.00,,,0.00,pywws,2013-05-14 19:04:00,
2013-05-14 20:09:00,48.4,41.8,29.41,North,-999,0.0,0.7,78,0.00,,,0.00,pywws,2013-05-14 19:09:00,
2013-05-14 20:14:00,47.8,42.0,29.41,North,-999,0.0,0.7,80,0.00,,,0.00,pywws,2013-05-14 19:14:00,
2013-05-14 20:19:00,47.3,41.8,29.41,North,-999,0.0,0.7,81,0.00,,,0.00,pywws,2013-05-14 19:19:00,
2013-05-14 20:24:00,46.8,41.6,29.41,North,-999,0.0,0.7,82,0.00,,,0.00,pywws,2013-05-14 19:24:00,
2013-05-14 20:29:00,46.4,41.5,29.41,North,-999,0.0,0.7,83,0.00,,,0.00,pywws,2013-05-14 19:29:00,
2013-05-14 20:34:00,46.2,41.3,29.41,North,-999,0.0,0.0,83,0.00,,,0.00,pywws,2013-05-14 19:34:00,
2013-05-14 20:39:00,46.0,41.5,29.41,North,-999,0.0,0.0,84,0.00,,,0.00,pywws,2013-05-14 19:39:00,
2013-05-14 20:44:00,45.9,41.6,29.41,North,-999,0.0,0.0,85,0.00,,,0.00,pywws,2013-05-14 19:44:00,
2013-05-14 20:49:00,45.5,41.3,29.41,North,-999,0.0,0.0,85,0.00,,,0.00,pywws,2013-05-14 19:49:00,
2013-05-14 20:54:00,45.3,41.4,29.42,North,-999,0.0,0.0,86,0.00,,,0.00,pywws,2013-05-14 19:54:00,
2013-05-14 21:04:00,45.1,41.2,29.41,North,-999,0.0,0.0,86,0.00,,,0.00,pywws,2013-05-14 20:04:00,
2013-05-14 21:09:00,45.3,42.0,29.42,North,-999,0.0,0.7,88,0.00,,,0.00,pywws,2013-05-14 20:09:00,
2013-05-14 21:14:00,45.5,42.2,29.42,North,-999,0.0,0.0,88,0.00,,,0.00,pywws,2013-05-14 20:14:00,
2013-05-14 21:19:00,45.5,42.2,29.42,North,-999,0.0,0.0,88,0.00,,,0.00,pywws,2013-05-14 20:19:00,
2013-05-14 21:24:00,45.3,42.0,29.42,North,-999,0.0,0.0,88,0.00,,,0.00,pywws,2013-05-14 20:24:00,
2013-05-14 21:29:00,45.1,41.8,29.42,North,-999,0.0,0.0,88,0.00,,,0.00,pywws,2013-05-14 20:29:00,
2013-05-14 21:34:00,44.8,41.4,29.42,North,-999,0.0,0.0,88,0.00,,,0.00,pywws,2013-05-14 20:34:00,
2013-05-14 21:39:00,44.4,41.1,29.42,North,-999,0.0,0.0,88,0.00,,,0.00,pywws,2013-05-14 20:39:00,
2013-05-14 21:44:00,44.1,41.0,29.42,North,-999,0.0,0.0,89,0.00,,,0.00,pywws,2013-05-14 20:44:00,
2013-05-14 21:49:00,43.7,41.0,29.42,North,-999,0.0,0.0,90,0.00,,,0.00,pywws,2013-05-14 20:49:00,
2013-05-14 21:54:00,43.2,40.4,29.42,North,-999,0.0,0.0,90,0.00,,,0.00,pywws,2013-05-14 20:54:00,
2013-05-14 22:04:00,42.8,40.1,29.42,North,-999,0.0,0.0,90,0.00,,,0.00,pywws,2013-05-14 21:04:00,
2013-05-14 22:09:00,42.1,39.6,29.42,North,-999,0.0,0.0,91,0.00,,,0.00,pywws,2013-05-14 21:09:00,
2013-05-14 22:14:00,41.7,39.6,29.42,North,-999,0.0,0.7,92,0.00,,,0.00,pywws,2013-05-14 21:14:00,
2013-05-14 22:19:00,41.7,39.8,29.42,North,-999,0.0,0.0,93,0.00,,,0.00,pywws,2013-05-14 21:19:00,
2013-05-14 22:24:00,41.5,39.7,29.42,North,-999,0.0,0.0,93,0.00,,,0.00,pywws,2013-05-14 21:24:00,
2013-05-14 22:29:00,41.4,39.8,29.43,North,-999,0.0,0.7,94,0.00,,,0.00,pywws,2013-05-14 21:29:00,
2013-05-14 22:34:00,41.2,39.9,29.42,North,-999,0.0,0.7,95,0.00,,,0.00,pywws,2013-05-14 21:34:00,
2013-05-14 22:39:00,41.4,40.3,29.42,North,-999,0.0,0.7,96,0.00,,,0.00,pywws,2013-05-14 21:39:00,
2013-05-14 22:44:00,41.4,40.0,29.42,North,-999,0.0,1.6,95,0.00,,,0.00,pywws,2013-05-14 21:44:00,
2013-05-14 22:49:00,41.4,40.3,29.42,North,-999,0.0,0.7,96,0.00,,,0.00,pywws,2013-05-14 21:49:00,
2013-05-14 22:54:00,41.4,40.3,29.43,North,-999,0.0,0.7,96,0.00,,,0.00,pywws,2013-05-14 21:54:00,
2013-05-14 23:04:00,41.4,40.0,29.43,North,-999,0.0,0.0,95,0.00,,,0.00,pywws,2013-05-14 22:04:00,
2013-05-14 23:09:00,41.5,40.2,29.43,North,-999,0.0,0.0,95,0.00,,,0.00,pywws,2013-05-14 22:09:00,
2013-05-14 23:14:00,41.4,39.8,29.43,North,-999,0.0,0.7,94,0.00,,,0.00,pywws,2013-05-14 22:14:00,
2013-05-14 23:19:00,41.5,40.2,29.43,North,-999,0.0,2.2,95,0.00,,,0.00,pywws,2013-05-14 22:19:00,
2013-05-14 23:24:00,41.7,40.1,29.43,North,-999,0.0,0.7,94,0.00,,,0.00,pywws,2013-05-14 22:24:00,
2013-05-14 23:29:00,42.1,40.2,29.43,North,-999,0.0,0.7,93,0.00,,,0.00,pywws,2013-05-14 22:29:00,
2013-05-14 23:34:00,42.1,40.2,29.43,NE,45,0.7,3.1,93,0.00,,,0.00,pywws,2013-05-14 22:34:00,
2013-05-14 23:39:00,42.3,40.1,29.42,North,-999,0.0,0.7,92,0.00,,,0.00,pywws,2013-05-14 22:39:00,
2013-05-14 23:44:00,42.1,39.9,29.43,North,-999,0.0,0.7,92,0.00,,,0.00,pywws,2013-05-14 22:44:00,
2013-05-14 23:49:00,41.9,39.7,29.43,North,-999,0.0,0.0,92,0.00,,,0.00,pywws,2013-05-14 22:49:00,
2013-05-14 23:54:00,41.5,39.4,29.43,North,-999,0.0,0.7,92,0.00,,,0.00,pywws,2013-05-14 22:54:00,